createdAt,value
2024-02-02T00:00:42.970Z,27.13
2024-02-02T00:03:10.203Z,17.37
2024-02-02T00:05:37.127Z,20.83
2024-02-02T00:08:04.180Z,15.87
2024-02-02T00:10:31.150Z,17.13
2024-02-02T00:12:58.096Z,15.90
2024-02-02T00:15:25.293Z,17.57
2024-02-02T00:17:52.448Z,17.60
2024-02-02T00:20:19.571Z,15.73
2024-02-02T00:22:47.604Z,13.90
2024-02-02T00:25:14.511Z,19.57
2024-02-02T00:27:41.345Z,18.17
2024-02-02T00:30:08.573Z,13.93
2024-02-02T00:32:35.756Z,17.03
2024-02-02T00:35:03.244Z,15.50
2024-02-02T00:37:30.187Z,18.60
2024-02-02T00:39:57.066Z,16.37
2024-02-02T00:42:23.944Z,18.33
2024-02-02T00:44:50.968Z,16.30
2024-02-02T00:47:17.822Z,13.53
2024-02-02T00:49:44.917Z,17.63
2024-02-02T00:52:11.820Z,20.13
2024-02-02T00:54:38.694Z,23.00
2024-02-02T00:57:05.770Z,18.57
2024-02-02T00:59:32.696Z,14.40
2024-02-02T01:01:59.628Z,22.90
2024-02-02T01:04:26.557Z,13.77
2024-02-02T01:06:53.660Z,19.73
2024-02-02T01:09:20.658Z,14.90
2024-02-02T01:11:48.996Z,19.97
2024-02-02T01:14:17.399Z,18.20
2024-02-02T01:16:44.294Z,16.87
2024-02-02T01:19:11.296Z,18.23
2024-02-02T01:21:38.382Z,16.17
2024-02-02T01:24:05.295Z,21.77
2024-02-02T01:26:32.253Z,10.33
2024-02-02T01:28:59.273Z,19.07
2024-02-02T01:31:26.113Z,17.97
2024-02-02T01:33:53.232Z,16.93
2024-02-02T01:36:20.297Z,17.07
2024-02-02T01:38:51.934Z,18.60
2024-02-02T01:41:19.309Z,20.07
2024-02-02T01:43:46.227Z,17.83
2024-02-02T01:46:16.197Z,15.90
2024-02-02T01:48:43.319Z,16.00
2024-02-02T01:51:10.438Z,15.00
2024-02-02T01:53:37.295Z,15.40
2024-02-02T01:56:04.849Z,16.00
2024-02-02T01:58:32.322Z,16.90
2024-02-02T02:00:59.174Z,17.60
2024-02-02T02:03:26.114Z,25.10
2024-02-02T02:05:53.645Z,15.03
2024-02-02T02:08:20.803Z,17.07
2024-02-02T02:10:47.801Z,16.40
2024-02-02T02:13:14.836Z,12.37
2024-02-02T02:15:41.895Z,23.37
2024-02-02T02:18:08.914Z,13.93
2024-02-02T02:20:35.874Z,16.83
2024-02-02T02:23:03.285Z,16.00
2024-02-02T02:25:30.288Z,15.90
2024-02-02T02:27:57.264Z,24.40
2024-02-02T02:30:24.591Z,16.20
2024-02-02T02:32:51.629Z,15.83
2024-02-02T02:35:18.591Z,14.90
2024-02-02T02:37:45.485Z,14.10
2024-02-02T02:40:12.700Z,14.77
2024-02-02T02:42:39.631Z,19.37
2024-02-02T02:45:06.803Z,16.70
2024-02-02T02:47:33.839Z,14.43
2024-02-02T02:50:00.816Z,17.70
2024-02-02T02:52:27.744Z,14.50
2024-02-02T02:54:54.640Z,19.77
2024-02-02T02:57:22.209Z,16.60
2024-02-02T02:59:49.125Z,19.30
2024-02-02T03:02:16.018Z,15.17
2024-02-02T03:04:42.842Z,10.73
2024-02-02T03:07:09.976Z,19.90
2024-02-02T03:09:38.379Z,12.50
2024-02-02T03:12:05.474Z,20.50
2024-02-02T03:14:32.687Z,9.57
2024-02-02T03:16:59.559Z,13.17
2024-02-02T03:19:26.569Z,12.87
2024-02-02T03:21:53.617Z,11.47
2024-02-02T03:24:20.513Z,16.90
2024-02-02T03:26:47.401Z,11.53
2024-02-02T03:29:14.466Z,16.33
2024-02-02T03:31:41.363Z,13.00
2024-02-02T03:34:08.324Z,12.20
2024-02-02T03:36:35.429Z,13.33
2024-02-02T03:39:02.337Z,11.40
2024-02-02T03:41:29.236Z,12.43
2024-02-02T03:43:57.948Z,12.17
2024-02-02T03:46:25.005Z,9.57
2024-02-02T03:48:53.438Z,18.10
2024-02-02T03:51:20.462Z,18.37
2024-02-02T03:53:47.351Z,14.23
2024-02-02T03:56:14.296Z,18.60
2024-02-02T03:58:41.175Z,15.20
2024-02-02T04:01:08.129Z,14.00
2024-02-02T04:03:35.492Z,15.13
2024-02-02T04:06:02.465Z,12.20
2024-02-02T04:08:29.824Z,15.77
2024-02-02T04:10:56.880Z,19.07
2024-02-02T04:13:23.829Z,13.10
2024-02-02T04:15:50.792Z,20.93
2024-02-02T04:18:17.887Z,47.57
2024-02-02T04:20:44.896Z,27.13
2024-02-02T04:23:11.883Z,11.03
2024-02-02T04:25:38.888Z,13.10
2024-02-02T04:28:06.825Z,11.37
2024-02-02T04:30:37.134Z,11.27
2024-02-02T04:33:05.125Z,13.70
2024-02-02T04:35:36.409Z,12.20
2024-02-02T04:38:04.010Z,14.43
2024-02-02T04:40:30.868Z,15.67
2024-02-02T04:42:58.189Z,12.70
2024-02-02T04:45:25.959Z,15.40
2024-02-02T04:47:53.002Z,8.20
2024-02-02T04:50:20.107Z,10.13
2024-02-02T04:52:47.038Z,9.80
2024-02-02T04:55:13.947Z,9.47
2024-02-02T04:57:40.813Z,11.17
2024-02-02T05:00:08.994Z,6.77
2024-02-02T05:02:35.937Z,9.20
2024-02-02T05:05:02.792Z,16.20
2024-02-02T05:07:30.170Z,7.57
2024-02-02T05:09:57.076Z,17.67
2024-02-02T05:12:24.151Z,14.70
2024-02-02T05:14:51.176Z,12.87
2024-02-02T05:17:18.151Z,21.00
2024-02-02T05:19:45.143Z,8.27
2024-02-02T05:22:12.071Z,15.93
2024-02-02T05:24:45.278Z,8.83
2024-02-02T05:27:14.061Z,9.10
2024-02-02T05:29:41.149Z,9.63
2024-02-02T05:32:08.087Z,10.90
2024-02-02T05:34:35.404Z,9.63
2024-02-02T05:37:02.434Z,12.37
2024-02-02T05:39:30.068Z,10.60
2024-02-02T05:41:58.903Z,12.23
2024-02-02T05:44:25.843Z,14.97
2024-02-02T05:46:52.789Z,22.63
2024-02-02T05:49:19.712Z,22.57
2024-02-02T05:51:46.813Z,9.73
2024-02-02T05:54:13.822Z,16.83
2024-02-02T05:56:40.871Z,16.37
2024-02-02T05:59:07.724Z,20.27
2024-02-02T06:01:34.769Z,19.83
2024-02-02T06:04:01.777Z,19.23
2024-02-02T06:06:28.823Z,19.33
2024-02-02T06:08:59.805Z,12.03
2024-02-02T06:11:27.466Z,14.50
2024-02-02T06:13:56.784Z,8.53
2024-02-02T06:16:23.826Z,10.30
2024-02-02T06:18:51.017Z,11.27
2024-02-02T06:21:18.227Z,7.30
2024-02-02T06:23:45.096Z,11.73
2024-02-02T06:26:12.273Z,5.17
2024-02-02T06:28:39.309Z,6.67
2024-02-02T06:31:06.216Z,9.40
2024-02-02T06:33:33.294Z,7.10
2024-02-02T06:36:00.445Z,12.63
2024-02-02T06:38:27.280Z,7.47
2024-02-02T06:40:54.259Z,13.20
2024-02-02T06:43:21.304Z,12.43
2024-02-02T06:45:49.443Z,13.70
2024-02-02T06:48:16.837Z,11.27
2024-02-02T06:50:45.722Z,14.30
2024-02-02T06:53:13.162Z,13.70
2024-02-02T06:55:40.090Z,10.97
2024-02-02T06:58:15.925Z,9.30
2024-02-02T07:00:43.500Z,11.20
2024-02-02T07:03:10.534Z,14.70
2024-02-02T07:05:37.625Z,10.47
2024-02-02T07:08:04.766Z,13.80
2024-02-02T07:10:31.645Z,12.37
2024-02-02T07:13:02.735Z,12.53
2024-02-02T07:15:32.376Z,16.60
2024-02-02T07:18:00.149Z,14.30
2024-02-02T07:20:27.314Z,23.00
2024-02-02T07:22:55.573Z,11.77
2024-02-02T07:25:23.554Z,14.73
2024-02-02T07:27:54.290Z,17.33
2024-02-02T07:30:30.276Z,14.87
2024-02-02T07:32:57.572Z,19.27
2024-02-02T07:35:33.203Z,18.83
2024-02-02T07:38:03.948Z,13.57
2024-02-02T07:40:46.142Z,17.70
2024-02-02T07:43:13.012Z,25.10
2024-02-02T07:45:39.970Z,15.07
2024-02-02T07:48:07.188Z,15.73
2024-02-02T07:50:35.943Z,16.77
2024-02-02T07:53:02.990Z,17.07
2024-02-02T07:55:30.044Z,18.43
2024-02-02T07:57:56.840Z,16.73
2024-02-02T08:00:23.789Z,12.20
2024-02-02T08:02:51.010Z,15.97
2024-02-02T08:05:17.886Z,16.63
2024-02-02T08:07:44.848Z,13.87
2024-02-02T08:10:11.724Z,9.73
2024-02-02T08:12:39.046Z,16.40
2024-02-02T08:15:06.069Z,13.77
2024-02-02T08:17:33.028Z,18.53
2024-02-02T08:20:00.009Z,14.30
2024-02-02T08:22:26.973Z,16.27
2024-02-02T08:24:53.816Z,12.90
2024-02-02T08:27:21.228Z,25.30
2024-02-02T08:29:50.275Z,15.13
2024-02-02T08:32:17.228Z,17.23
2024-02-02T08:34:44.222Z,15.40
2024-02-02T08:37:11.266Z,17.27
2024-02-02T08:39:38.338Z,11.73
2024-02-02T08:42:09.670Z,17.90
2024-02-02T08:44:36.885Z,18.27
2024-02-02T08:47:03.919Z,19.83
2024-02-02T08:49:46.244Z,21.30
2024-02-02T08:52:13.800Z,23.50
2024-02-02T08:54:49.815Z,13.77
2024-02-02T08:57:21.541Z,13.83
2024-02-02T08:59:53.898Z,15.73
2024-02-02T09:02:36.188Z,13.90
2024-02-02T09:05:09.285Z,17.97
2024-02-02T09:07:36.232Z,15.13
2024-02-02T09:10:21.535Z,17.73
2024-02-02T09:12:50.459Z,13.07
2024-02-02T09:15:19.020Z,12.70
2024-02-02T09:17:45.940Z,17.77
2024-02-02T09:20:19.740Z,19.37
2024-02-02T09:22:46.603Z,15.30
2024-02-02T09:25:21.804Z,14.00
2024-02-02T09:27:48.857Z,15.40
2024-02-02T09:30:21.619Z,12.97
2024-02-02T09:32:48.683Z,20.33
2024-02-02T09:35:27.851Z,18.00
2024-02-02T09:37:54.795Z,19.83
2024-02-02T09:40:40.367Z,19.73
2024-02-02T09:43:07.727Z,18.67
2024-02-02T09:45:40.720Z,15.50
2024-02-02T09:48:10.956Z,19.37
2024-02-02T09:50:59.625Z,13.77
2024-02-02T09:53:34.218Z,16.70
2024-02-02T09:56:01.049Z,13.17
2024-02-02T09:58:47.012Z,12.57
2024-02-02T10:01:17.066Z,15.07
2024-02-02T10:04:03.026Z,15.27
2024-02-02T10:06:30.027Z,18.07
2024-02-02T10:08:59.205Z,10.07
2024-02-02T10:11:36.932Z,13.53
2024-02-02T10:14:16.127Z,12.50
2024-02-02T10:16:43.082Z,11.87
2024-02-02T10:19:28.792Z,12.50
2024-02-02T10:21:55.814Z,9.40
2024-02-02T10:24:28.831Z,16.27
2024-02-02T10:26:58.431Z,20.17
2024-02-02T10:29:26.026Z,9.67
2024-02-02T10:32:00.666Z,15.63
2024-02-02T10:34:34.856Z,14.27
2024-02-02T10:37:01.930Z,22.27
2024-02-02T10:39:38.125Z,32.27
2024-02-02T10:42:31.506Z,32.10
2024-02-02T10:45:09.146Z,20.80
2024-02-02T10:47:39.446Z,16.80
2024-02-02T10:50:06.545Z,11.17
2024-02-02T10:52:36.651Z,12.20
2024-02-02T10:55:18.855Z,10.93
2024-02-02T10:57:45.739Z,20.53
2024-02-02T11:00:25.686Z,14.07
2024-02-02T11:02:53.799Z,13.30
2024-02-02T11:05:20.671Z,11.07
2024-02-02T11:07:54.024Z,13.70
2024-02-02T11:10:22.536Z,12.80
2024-02-02T11:12:58.954Z,15.27
2024-02-02T11:15:35.288Z,11.10
2024-02-02T11:18:02.517Z,15.37
2024-02-02T11:20:39.155Z,12.53
2024-02-02T11:23:05.998Z,10.60
2024-02-02T11:25:53.527Z,15.20
2024-02-02T11:28:20.351Z,20.50
2024-02-02T11:30:57.119Z,14.43
2024-02-02T11:33:27.163Z,13.83
2024-02-02T11:35:57.303Z,16.30
2024-02-02T11:38:44.405Z,16.67
2024-02-02T11:41:14.855Z,12.80
2024-02-02T11:43:42.594Z,12.67
2024-02-02T11:46:10.201Z,13.03
2024-02-02T11:48:39.830Z,9.27
2024-02-02T11:51:08.368Z,9.43
2024-02-02T11:53:39.885Z,14.53
2024-02-02T11:56:25.783Z,14.30
2024-02-02T11:58:59.087Z,12.20
2024-02-02T12:01:34.722Z,18.87
2024-02-02T12:04:22.175Z,9.60
2024-02-02T12:06:55.516Z,7.33
2024-02-02T12:09:43.761Z,8.67
2024-02-02T12:12:14.189Z,13.63
2024-02-02T12:14:44.217Z,12.90
2024-02-02T12:17:14.380Z,14.33
2024-02-02T12:19:41.622Z,15.03
2024-02-02T12:22:08.656Z,14.00
2024-02-02T12:24:36.115Z,15.30
2024-02-02T12:27:04.851Z,15.63
2024-02-02T12:29:31.820Z,13.40
2024-02-02T12:31:58.660Z,9.60
2024-02-02T12:34:25.802Z,12.10
2024-02-02T12:36:52.849Z,17.97
2024-02-02T12:39:19.815Z,22.53
2024-02-02T12:41:47.117Z,14.13
2024-02-02T12:44:14.094Z,15.17
2024-02-02T12:46:48.753Z,20.07
2024-02-02T12:49:16.061Z,18.57
2024-02-02T12:51:45.239Z,18.23
2024-02-02T12:54:12.277Z,15.70
2024-02-02T12:56:41.372Z,16.73
2024-02-02T12:59:12.597Z,11.30
2024-02-02T13:01:39.731Z,23.43
2024-02-02T13:04:06.896Z,12.63
2024-02-02T13:06:34.598Z,13.27
2024-02-02T13:09:19.684Z,15.50
2024-02-02T13:11:47.278Z,10.43
2024-02-02T13:14:14.506Z,13.30
2024-02-02T13:16:41.461Z,17.83
2024-02-02T13:19:28.335Z,12.53
2024-02-02T13:22:02.029Z,17.93
2024-02-02T13:24:28.997Z,17.83
2024-02-02T13:27:06.202Z,19.93
2024-02-02T13:29:37.080Z,17.53
2024-02-02T13:32:05.192Z,12.77
2024-02-02T13:34:32.540Z,14.77
2024-02-02T13:37:03.695Z,19.33
2024-02-02T13:39:30.716Z,14.93
2024-02-02T13:42:01.586Z,18.07
2024-02-02T13:44:28.550Z,17.33
2024-02-02T13:46:57.510Z,13.67
2024-02-02T13:49:24.900Z,13.60
2024-02-02T13:51:53.148Z,15.97
2024-02-02T13:54:20.308Z,16.37
2024-02-02T13:56:47.362Z,19.77
2024-02-02T13:59:20.490Z,17.40
2024-02-02T14:01:47.498Z,11.60
2024-02-02T14:04:15.186Z,18.83
2024-02-02T14:06:42.271Z,19.20
2024-02-02T14:09:10.071Z,17.67
2024-02-02T14:11:39.416Z,15.23
2024-02-02T14:14:07.149Z,15.30
2024-02-02T14:16:34.273Z,15.30
2024-02-02T14:19:02.355Z,10.47
2024-02-02T14:21:31.415Z,19.30
2024-02-02T14:24:06.097Z,17.60
2024-02-02T14:26:33.041Z,27.93
2024-02-02T14:29:03.275Z,18.97
2024-02-02T14:31:31.779Z,15.67
2024-02-02T14:33:58.922Z,24.90
2024-02-02T14:36:25.851Z,14.50
2024-02-02T14:38:52.821Z,21.13
2024-02-02T14:41:19.641Z,20.33
2024-02-02T14:43:46.561Z,14.53
2024-02-02T14:46:13.482Z,14.17
2024-02-02T14:48:40.705Z,24.73
2024-02-02T14:51:07.836Z,12.40
2024-02-02T14:53:35.202Z,14.80
2024-02-02T14:56:02.108Z,21.63
2024-02-02T14:58:30.048Z,22.60
2024-02-02T15:00:58.258Z,22.10
2024-02-02T15:03:25.272Z,26.77
2024-02-02T15:05:52.263Z,26.23
2024-02-02T15:08:19.273Z,16.17
2024-02-02T15:10:46.374Z,15.67
2024-02-02T15:13:14.376Z,11.63
2024-02-02T15:15:41.346Z,22.10
2024-02-02T15:18:08.606Z,19.83
2024-02-02T15:20:35.733Z,19.17
2024-02-02T15:23:02.775Z,18.80
2024-02-02T15:25:29.747Z,18.30
2024-02-02T15:27:56.598Z,18.20
2024-02-02T15:30:23.723Z,15.40
2024-02-02T15:32:50.661Z,15.27
2024-02-02T15:35:17.890Z,16.07
2024-02-02T15:37:44.739Z,16.90
2024-02-02T15:40:15.216Z,14.50
2024-02-02T15:42:42.343Z,10.90
2024-02-02T15:45:11.472Z,14.17
2024-02-02T15:47:38.677Z,13.90
2024-02-02T15:50:07.398Z,15.30
2024-02-02T15:52:34.428Z,16.73
2024-02-02T15:55:04.547Z,16.00
2024-02-02T15:57:31.959Z,17.13
2024-02-02T15:59:58.872Z,15.63
2024-02-02T16:02:26.523Z,22.77
2024-02-02T16:04:58.061Z,22.27
2024-02-02T16:07:25.423Z,16.43
2024-02-02T16:09:52.277Z,20.63
2024-02-02T16:12:19.326Z,15.57
2024-02-02T16:14:46.207Z,12.10
2024-02-02T16:17:13.103Z,17.87
2024-02-02T16:19:40.310Z,21.87
2024-02-02T16:22:07.566Z,15.73
2024-02-02T16:24:35.606Z,9.60
2024-02-02T16:27:03.714Z,13.30
2024-02-02T16:29:30.619Z,13.83
2024-02-02T16:31:57.480Z,13.00
2024-02-02T16:34:24.685Z,18.23
2024-02-02T16:36:51.695Z,14.57
2024-02-02T16:39:18.633Z,22.07
2024-02-02T16:41:46.948Z,11.70
2024-02-02T16:44:15.123Z,16.00
2024-02-02T16:46:42.563Z,7.67
2024-02-02T16:49:09.965Z,12.10
2024-02-02T16:51:38.045Z,10.70
2024-02-02T16:54:06.962Z,12.57
2024-02-02T16:56:33.938Z,8.57
2024-02-02T16:59:00.979Z,7.47
2024-02-02T17:01:34.978Z,11.10
2024-02-02T17:04:02.655Z,10.87
2024-02-02T17:06:30.850Z,15.60
2024-02-02T17:08:58.365Z,9.33
2024-02-02T17:11:25.381Z,10.57
2024-02-02T17:13:52.384Z,15.47
2024-02-02T17:16:20.100Z,11.70
2024-02-02T17:18:47.338Z,8.67
2024-02-02T17:21:14.339Z,8.63
2024-02-02T17:23:41.237Z,9.63
2024-02-02T17:26:14.688Z,11.70
2024-02-02T17:28:41.936Z,10.40
2024-02-02T17:31:11.843Z,12.47
2024-02-02T17:33:39.187Z,11.83
2024-02-02T17:36:10.375Z,9.23
2024-02-02T17:38:37.842Z,11.53
2024-02-02T17:41:05.136Z,9.50
2024-02-02T17:43:32.305Z,11.30
2024-02-02T17:45:59.325Z,13.43
2024-02-02T17:48:26.363Z,12.23
2024-02-02T17:50:53.544Z,14.53
2024-02-02T17:53:20.492Z,9.90
2024-02-02T17:55:47.424Z,13.53
2024-02-02T17:58:14.328Z,13.00
2024-02-02T18:00:41.305Z,11.83
2024-02-02T18:03:08.413Z,13.43
2024-02-02T18:05:35.353Z,17.50
2024-02-02T18:08:02.308Z,24.70
2024-02-02T18:10:29.194Z,24.80
2024-02-02T18:12:56.095Z,21.20
2024-02-02T18:15:23.339Z,27.23
2024-02-02T18:17:50.570Z,31.03
2024-02-02T18:20:17.662Z,29.73
2024-02-02T18:22:44.659Z,29.67
2024-02-02T18:25:11.603Z,30.80
2024-02-02T18:27:38.656Z,34.67
2024-02-02T18:30:07.806Z,36.00
2024-02-02T18:32:34.729Z,34.70
2024-02-02T18:35:01.852Z,39.90
2024-02-02T18:37:29.335Z,29.23
2024-02-02T18:39:56.792Z,31.73
2024-02-02T18:42:23.940Z,36.10
2024-02-02T18:44:51.605Z,43.73
2024-02-02T18:47:20.324Z,31.23
2024-02-02T18:49:47.875Z,30.03
2024-02-02T18:52:15.685Z,37.37
2024-02-02T18:54:43.257Z,33.10
2024-02-02T18:57:10.646Z,31.00
2024-02-02T18:59:38.500Z,32.03
2024-02-02T19:02:09.353Z,25.77
2024-02-02T19:04:37.724Z,20.40
2024-02-02T19:07:06.597Z,31.77
2024-02-02T19:09:34.424Z,23.47
2024-02-02T19:12:01.538Z,24.37
2024-02-02T19:14:30.093Z,23.53
2024-02-02T19:16:57.436Z,24.90
2024-02-02T19:19:25.501Z,20.57
2024-02-02T19:21:53.501Z,22.57
2024-02-02T19:24:20.931Z,20.57
2024-02-02T19:26:49.469Z,22.27
2024-02-02T19:29:17.013Z,19.17
2024-02-02T19:31:43.888Z,19.47
2024-02-02T19:34:11.010Z,20.97
2024-02-02T19:36:38.123Z,18.90
2024-02-02T19:39:05.130Z,22.23
2024-02-02T19:41:33.169Z,24.87
2024-02-02T19:44:00.509Z,26.40
2024-02-02T19:46:28.383Z,23.00
2024-02-02T19:48:55.840Z,15.93
2024-02-02T19:51:23.908Z,22.63
2024-02-02T19:53:51.050Z,25.73
2024-02-02T19:56:19.669Z,21.70
2024-02-02T19:58:47.310Z,19.80
2024-02-02T20:01:15.527Z,22.40
2024-02-02T20:03:43.925Z,19.77
2024-02-02T20:06:11.978Z,20.53
2024-02-02T20:08:39.798Z,21.37
2024-02-02T20:11:11.279Z,19.33
2024-02-02T20:13:38.249Z,17.60
2024-02-02T20:16:05.691Z,18.90
2024-02-02T20:18:32.999Z,13.90
2024-02-02T20:21:00.299Z,21.10
2024-02-02T20:23:27.789Z,24.80
2024-02-02T20:25:54.882Z,24.63
2024-02-02T20:28:21.789Z,16.07
2024-02-02T20:30:49.616Z,21.10
2024-02-02T20:33:16.850Z,19.73
2024-02-02T20:35:45.069Z,19.47
2024-02-02T20:38:12.289Z,24.90
2024-02-02T20:40:39.399Z,24.83
2024-02-02T20:43:06.692Z,14.73
2024-02-02T20:45:33.810Z,14.60
2024-02-02T20:48:02.015Z,21.50
2024-02-02T20:50:29.082Z,15.30
2024-02-02T20:52:55.896Z,22.57
2024-02-02T20:55:22.882Z,18.33
2024-02-02T20:57:49.856Z,25.73
2024-02-02T21:00:18.617Z,26.90
2024-02-02T21:02:45.590Z,28.03
2024-02-02T21:05:12.705Z,21.33
2024-02-02T21:07:40.393Z,20.83
2024-02-02T21:10:07.917Z,20.33
2024-02-02T21:12:35.293Z,13.73
2024-02-02T21:15:02.320Z,18.10
2024-02-02T21:17:29.845Z,12.93
2024-02-02T21:19:58.396Z,21.03
2024-02-02T21:22:25.809Z,11.03
2024-02-02T21:24:52.680Z,15.43
2024-02-02T21:27:19.813Z,15.40
2024-02-02T21:29:47.002Z,18.60
2024-02-02T21:32:14.078Z,11.23
2024-02-02T21:34:41.201Z,11.17
2024-02-02T21:37:10.817Z,12.83
2024-02-02T21:39:38.582Z,21.73
2024-02-02T21:42:05.821Z,14.20
2024-02-02T21:44:37.159Z,8.13
2024-02-02T21:47:04.566Z,15.60
2024-02-02T21:49:31.847Z,14.33
2024-02-02T21:51:58.893Z,10.40
2024-02-02T21:54:26.002Z,18.00
2024-02-02T21:56:53.418Z,16.90
2024-02-02T21:59:21.211Z,11.80
2024-02-02T22:05:50.543Z,7.43
2024-02-02T22:08:17.626Z,17.20
2024-02-02T22:10:44.479Z,14.13
2024-02-02T22:13:11.659Z,17.57
2024-02-02T22:15:38.585Z,17.90
2024-02-02T22:18:05.923Z,13.47
2024-02-02T22:20:33.623Z,15.70
2024-02-02T22:23:01.408Z,16.10
2024-02-02T22:25:28.728Z,16.27
2024-02-02T22:27:55.845Z,16.60
2024-02-02T22:30:23.358Z,17.37
2024-02-02T22:32:50.664Z,16.70
2024-02-02T22:35:18.270Z,19.70
2024-02-02T22:37:45.682Z,17.70
2024-02-02T22:40:13.171Z,18.20
2024-02-02T22:42:40.888Z,22.67
2024-02-02T22:45:08.646Z,17.53
2024-02-02T22:47:35.850Z,20.50
2024-02-02T22:50:03.560Z,14.10
2024-02-02T22:52:30.790Z,15.57
2024-02-02T22:54:58.232Z,21.53
2024-02-02T22:57:26.403Z,22.47
2024-02-02T22:59:59.487Z,17.13
2024-02-02T23:02:29.458Z,20.00
2024-02-02T23:04:56.282Z,19.07
2024-02-02T23:07:23.597Z,19.67
2024-02-02T23:09:50.552Z,19.30
2024-02-02T23:12:17.455Z,17.20
2024-02-02T23:14:44.367Z,17.77
2024-02-02T23:17:11.257Z,14.63
2024-02-02T23:19:42.111Z,16.43
2024-02-02T23:22:11.038Z,16.87
2024-02-02T23:24:38.087Z,14.47
2024-02-02T23:27:05.111Z,16.47
2024-02-02T23:29:32.072Z,19.20
2024-02-02T23:31:59.544Z,19.33
2024-02-02T23:34:26.612Z,21.97
2024-02-02T23:36:53.720Z,19.53
2024-02-02T23:39:20.694Z,16.67
2024-02-02T23:41:47.774Z,19.17
2024-02-02T23:44:14.581Z,18.50
2024-02-02T23:46:41.605Z,22.00
2024-02-02T23:49:08.732Z,18.73
2024-02-02T23:51:36.153Z,20.47
2024-02-02T23:54:03.099Z,15.73
2024-02-02T23:56:29.972Z,15.77
2024-02-02T23:58:56.892Z,17.37
